Time;durP1;ratioP1;P1;durP2;ratioP2;P2;SDS_P1;SDS_P2;PMS_P1;PMS_P2;Temp;Humidity;BMP_temperature;BMP_pressure;BME280_temperature;BME280_humidity;BME280_pressure;Samples;Min_cycle;Max_cycle;Signal;HPM_P1;HPM_P2
2022/10/28 00:01:00;;;;;;;;;;;18.70;72.70;;;;;;5103401;28;19916;-79
2022/10/28 00:03:26;;;;;;;;;;;18.70;72.70;;;;;;5093810;28;19912;-79
2022/10/28 00:05:53;;;;;;;;;;;18.70;72.70;;;;;;5112841;27;19966;-79
2022/10/28 00:08:19;;;;;;;;;;;18.70;72.70;;;;;;5092410;28;19923;-79
2022/10/28 00:10:44;;;;;;;;;;;18.70;72.70;;;;;;5087456;28;20253;-79
2022/10/28 00:13:10;;;;;;;;;;;18.70;72.70;;;;;;5091792;28;19961;-79
2022/10/28 00:15:36;;;;;;;;;;;18.70;72.70;;;;;;5092845;28;19923;-80
2022/10/28 00:18:01;;;;;;;;;;;18.70;72.70;;;;;;5078129;28;19912;-80
2022/10/28 00:20:28;;;;;;;;;;;18.70;72.70;;;;;;5080897;28;19923;-79
2022/10/28 00:22:54;;;;;;;;;;;18.70;72.80;;;;;;5081527;28;20365;-78
2022/10/28 00:25:23;;;;;;;;;;;18.70;72.70;;;;;;5103003;28;20024;-79
2022/10/28 00:27:50;;;;;;;;;;;18.70;72.70;;;;;;5088038;28;19950;-79
2022/10/28 00:30:15;;;;;;;;;;;18.60;72.70;;;;;;5095774;28;19927;-79
2022/10/28 00:32:41;;;;;;;;;;;18.60;72.70;;;;;;5101151;28;19919;-79
2022/10/28 00:35:07;;;;;;;;;;;18.60;72.70;;;;;;5100137;28;20368;-79
2022/10/28 00:37:32;;;;;;;;;;;18.60;72.70;;;;;;5101834;28;20010;-79
2022/10/28 00:39:58;;;;;;;;;;;18.60;72.70;;;;;;5095838;28;19961;-79
2022/10/28 00:42:23;;;;;;;;;;;18.60;72.70;;;;;;5074300;28;19916;-81
2022/10/28 00:44:54;;;;;;;;;;;18.60;72.80;;;;;;5103088;28;19916;-79
2022/10/28 00:47:38;;;;;;;;;;;18.50;72.70;;;;;;5112310;27;19927;-81
2022/10/28 00:50:10;;;;;;;;;;;18.50;72.70;;;;;;5089147;28;19912;-79
2022/10/28 00:52:36;;;;;;;;;;;18.50;72.70;;;;;;5102370;28;19912;-79
2022/10/28 00:55:02;;;;;;;;;;;18.50;72.70;;;;;;5084161;28;19920;-79
2022/10/28 00:57:30;;;;;;;;;;;18.50;72.70;;;;;;5095374;28;19912;-80
2022/10/28 00:59:57;;;;;;;;;;;18.50;72.70;;;;;;5097451;28;19916;-79
2022/10/28 01:02:23;;;;;;;;;;;18.50;72.80;;;;;;5093337;28;20352;-79
2022/10/28 01:04:48;;;;;;;;;;;18.50;72.70;;;;;;5071287;28;19914;-81
2022/10/28 01:07:14;;;;;;;;;;;18.40;72.60;;;;;;5095778;28;19920;-80
2022/10/28 01:09:40;;;;;;;;;;;18.40;72.70;;;;;;5092053;28;19908;-80
2022/10/28 01:12:06;;;;;;;;;;;18.40;72.70;;;;;;5090308;28;19976;-79
2022/10/28 01:14:34;;;;;;;;;;;18.40;72.70;;;;;;5077613;28;20396;-80
2022/10/28 01:17:08;;;;;;;;;;;18.40;72.70;;;;;;5095212;28;20373;-79
2022/10/28 01:19:40;;;;;;;;;;;18.40;72.70;;;;;;5109401;27;19912;-81
2022/10/28 01:22:18;;;;;;;;;;;18.40;72.70;;;;;;5094510;28;19995;-80
2022/10/28 01:24:47;;;;;;;;;;;18.40;72.80;;;;;;5087744;28;20010;-82
2022/10/28 01:27:31;;;;;;;;;;;18.30;72.80;;;;;;5076478;28;19927;-79
2022/10/28 01:30:03;;;;;;;;;;;18.30;72.80;;;;;;5084684;28;19920;-80
2022/10/28 01:32:34;;;;;;;;;;;18.30;72.80;;;;;;5087408;28;20010;-79
2022/10/28 01:35:00;;;;;;;;;;;18.30;72.80;;;;;;5085901;28;19912;-79
2022/10/28 01:37:39;;;;;;;;;;;18.30;72.80;;;;;;5080432;28;19920;-79
2022/10/28 01:40:12;;;;;;;;;;;18.30;72.80;;;;;;5094367;28;19951;-79
2022/10/28 01:42:41;;;;;;;;;;;18.30;72.80;;;;;;5097012;28;20352;-84
2022/10/28 01:45:16;;;;;;;;;;;18.20;72.80;;;;;;5083327;28;20349;-79
2022/10/28 01:47:48;;;;;;;;;;;18.30;72.80;;;;;;5098301;28;19924;-79
2022/10/28 01:50:17;;;;;;;;;;;18.20;72.80;;;;;;5089444;28;19912;-79
2022/10/28 01:52:45;;;;;;;;;;;18.20;72.80;;;;;;5095285;28;19915;-79
2022/10/28 01:55:16;;;;;;;;;;;18.20;72.80;;;;;;5095582;28;19972;-79
2022/10/28 01:57:42;;;;;;;;;;;18.20;72.80;;;;;;5085695;28;19919;-80
2022/10/28 02:00:08;;;;;;;;;;;18.20;72.80;;;;;;5096891;28;19912;-79
2022/10/28 02:02:41;;;;;;;;;;;18.20;72.80;;;;;;5096733;28;19922;-79
2022/10/28 02:05:26;;;;;;;;;;;18.20;72.80;;;;;;5097028;28;19912;-80
2022/10/28 02:07:55;;;;;;;;;;;18.20;72.80;;;;;;5061695;28;19942;-80
2022/10/28 02:10:23;;;;;;;;;;;18.10;72.80;;;;;;5103067;28;20397;-79
2022/10/28 02:12:53;;;;;;;;;;;18.10;72.80;;;;;;5093832;28;19973;-79
2022/10/28 02:15:39;;;;;;;;;;;18.10;72.80;;;;;;5085962;28;19919;-79
2022/10/28 02:18:15;;;;;;;;;;;18.10;72.80;;;;;;5082755;28;20347;-79
2022/10/28 02:20:50;;;;;;;;;;;18.10;72.80;;;;;;5086029;28;19920;-81
2022/10/28 02:23:25;;;;;;;;;;;18.00;72.80;;;;;;5100738;28;20379;-79
2022/10/28 02:25:53;;;;;;;;;;;18.10;72.80;;;;;;5087014;28;19919;-79
2022/10/28 02:28:35;;;;;;;;;;;18.10;72.90;;;;;;5095034;28;20364;-81
2022/10/28 02:31:04;;;;;;;;;;;18.00;72.80;;;;;;5087467;28;19920;-81
2022/10/28 02:33:33;;;;;;;;;;;18.00;72.80;;;;;;5091800;28;20389;-82
2022/10/28 02:36:02;;;;;;;;;;;18.00;72.80;;;;;;5090848;28;20008;-79
2022/10/28 02:38:38;;;;;;;;;;;18.00;73.50;;;;;;5091160;28;19912;-80
2022/10/28 02:41:24;;;;;;;;;;;18.00;72.90;;;;;;5108488;27;19920;-80
2022/10/28 02:43:52;;;;;;;;;;;18.00;72.90;;;;;;5085947;28;20379;-80
2022/10/28 02:46:18;;;;;;;;;;;18.00;72.90;;;;;;5106184;27;19908;-79
2022/10/28 02:48:47;;;;;;;;;;;17.90;72.80;;;;;;5100537;28;20011;-79
2022/10/28 02:51:17;;;;;;;;;;;18.00;72.90;;;;;;5093513;28;20003;-79
2022/10/28 02:53:46;;;;;;;;;;;17.90;72.80;;;;;;5093073;28;19947;-80
2022/10/28 02:56:13;;;;;;;;;;;17.90;72.80;;;;;;5096247;28;19914;-78
2022/10/28 02:58:39;;;;;;;;;;;17.90;72.90;;;;;;5077448;28;19919;-79
2022/10/28 03:01:05;;;;;;;;;;;17.90;72.90;;;;;;5093059;28;20293;-79
2022/10/28 03:03:31;;;;;;;;;;;17.80;72.80;;;;;;5061079;28;19965;-79
2022/10/28 03:05:56;;;;;;;;;;;17.80;72.80;;;;;;5093116;28;20283;-79
2022/10/28 03:08:24;;;;;;;;;;;17.80;72.80;;;;;;5095999;28;20002;-79
2022/10/28 03:10:50;;;;;;;;;;;17.80;72.90;;;;;;5087050;28;19916;-78
2022/10/28 03:13:15;;;;;;;;;;;17.80;72.90;;;;;;5088180;28;20011;-81
2022/10/28 03:15:41;;;;;;;;;;;17.80;72.90;;;;;;5090946;28;20369;-80
2022/10/28 03:18:07;;;;;;;;;;;17.80;72.90;;;;;;5099377;28;19918;-79
2022/10/28 03:20:32;;;;;;;;;;;17.80;72.90;;;;;;5092657;28;19924;-80
2022/10/28 03:22:58;;;;;;;;;;;17.80;72.90;;;;;;5109414;28;19919;-79
2022/10/28 03:25:24;;;;;;;;;;;17.80;72.90;;;;;;5094989;28;20502;-80
2022/10/28 03:27:49;;;;;;;;;;;17.70;72.80;;;;;;5082659;28;19951;-80
2022/10/28 03:30:17;;;;;;;;;;;17.70;72.80;;;;;;5085443;28;19920;-79
2022/10/28 03:32:43;;;;;;;;;;;17.70;72.90;;;;;;5108220;28;19912;-79
2022/10/28 03:35:08;;;;;;;;;;;17.70;72.90;;;;;;5112822;28;19912;-78
2022/10/28 03:37:34;;;;;;;;;;;17.70;72.90;;;;;;5090191;28;19919;-79
2022/10/28 03:40:01;;;;;;;;;;;17.70;72.90;;;;;;5081319;28;20281;-79
2022/10/28 03:42:27;;;;;;;;;;;17.70;72.90;;;;;;5090563;28;19908;-80
2022/10/28 03:44:53;;;;;;;;;;;17.60;72.90;;;;;;5074737;28;20433;-79
2022/10/28 03:47:18;;;;;;;;;;;17.60;72.90;;;;;;5102421;28;19983;-79
2022/10/28 03:49:44;;;;;;;;;;;17.60;72.90;;;;;;5083198;28;19938;-80
2022/10/28 03:52:09;;;;;;;;;;;17.60;72.90;;;;;;5113050;28;19933;-80
2022/10/28 03:54:35;;;;;;;;;;;17.60;72.90;;;;;;5088047;28;20024;-81
2022/10/28 03:57:01;;;;;;;;;;;17.60;72.90;;;;;;5086288;28;19912;-80
2022/10/28 03:59:26;;;;;;;;;;;17.60;72.90;;;;;;5094896;28;19924;-79
2022/10/28 04:01:52;;;;;;;;;;;17.60;72.90;;;;;;5072883;28;19961;-79
2022/10/28 04:04:18;;;;;;;;;;;17.50;72.90;;;;;;5086229;28;20019;-79
2022/10/28 04:06:43;;;;;;;;;;;17.50;72.90;;;;;;5102462;28;19908;-79
2022/10/28 04:09:09;;;;;;;;;;;17.60;73.00;;;;;;5085504;28;20300;-78
2022/10/28 04:11:35;;;;;;;;;;;17.50;72.90;;;;;;5072723;28;19920;-80
2022/10/28 04:14:00;;;;;;;;;;;17.50;72.90;;;;;;5103890;28;19912;-83
2022/10/28 04:16:26;;;;;;;;;;;17.50;72.90;;;;;;5086381;28;19963;-79
2022/10/28 04:18:51;;;;;;;;;;;17.50;72.90;;;;;;5097241;28;19937;-79
2022/10/28 04:21:17;;;;;;;;;;;17.50;72.90;;;;;;5080031;28;19916;-79
2022/10/28 04:23:43;;;;;;;;;;;17.40;72.90;;;;;;5091506;28;19938;-80
2022/10/28 04:26:08;;;;;;;;;;;17.40;72.90;;;;;;5106938;28;19916;-79
2022/10/28 04:28:34;;;;;;;;;;;17.40;72.90;;;;;;5080630;28;19923;-78
2022/10/28 04:31:01;;;;;;;;;;;17.40;73.00;;;;;;5089792;28;20381;-80
2022/10/28 04:33:27;;;;;;;;;;;17.40;73.00;;;;;;5095337;28;19946;-79
2022/10/28 04:35:53;;;;;;;;;;;17.40;73.00;;;;;;5089022;28;19970;-80
2022/10/28 04:38:18;;;;;;;;;;;17.40;73.00;;;;;;5080552;28;20360;-80
2022/10/28 04:40:48;;;;;;;;;;;17.30;73.00;;;;;;5083913;28;19915;-79
2022/10/28 04:43:13;;;;;;;;;;;17.30;73.10;;;;;;5086380;28;19916;-80
2022/10/28 04:45:39;;;;;;;;;;;17.30;73.10;;;;;;5090874;28;19909;-80
2022/10/28 04:48:05;;;;;;;;;;;17.30;73.10;;;;;;5082449;28;20041;-79
2022/10/28 04:50:30;;;;;;;;;;;17.30;73.10;;;;;;5088038;28;19919;-81
2022/10/28 04:52:56;;;;;;;;;;;17.20;73.10;;;;;;5089547;28;19920;-79
2022/10/28 04:55:22;;;;;;;;;;;17.20;73.10;;;;;;5081771;28;20395;-80
2022/10/28 04:57:57;;;;;;;;;;;17.20;73.10;;;;;;5092619;28;19916;-79
2022/10/28 05:00:24;;;;;;;;;;;17.20;73.10;;;;;;5093697;28;19916;-81
2022/10/28 05:02:49;;;;;;;;;;;17.20;73.20;;;;;;5083859;28;20329;-79
2022/10/28 05:05:15;;;;;;;;;;;17.20;73.20;;;;;;5086425;28;20011;-80
2022/10/28 05:07:41;;;;;;;;;;;17.20;73.20;;;;;;5081332;28;20010;-80
2022/10/28 05:10:06;;;;;;;;;;;17.20;73.20;;;;;;5095444;28;20014;-81
2022/10/28 05:12:32;;;;;;;;;;;17.20;73.20;;;;;;5089362;28;19924;-81
2022/10/28 05:14:58;;;;;;;;;;;17.10;73.20;;;;;;5070468;28;19928;-81
2022/10/28 05:17:23;;;;;;;;;;;17.10;73.20;;;;;;5085223;28;19912;-81
2022/10/28 05:19:49;;;;;;;;;;;17.10;73.20;;;;;;5109295;27;19912;-79
2022/10/28 05:22:14;;;;;;;;;;;17.10;73.20;;;;;;5101609;28;19977;-83
2022/10/28 05:24:40;;;;;;;;;;;17.10;73.30;;;;;;5103186;28;19947;-81
2022/10/28 05:27:06;;;;;;;;;;;17.10;73.20;;;;;;5089627;28;20368;-81
2022/10/28 05:29:31;;;;;;;;;;;17.10;73.30;;;;;;5093537;28;19989;-82
2022/10/28 05:31:57;;;;;;;;;;;17.10;73.30;;;;;;5073513;28;19925;-80
2022/10/28 05:34:23;;;;;;;;;;;17.00;73.30;;;;;;5107972;28;20261;-81
2022/10/28 05:36:49;;;;;;;;;;;17.00;73.20;;;;;;5077332;28;19944;-80
2022/10/28 05:39:15;;;;;;;;;;;17.10;73.30;;;;;;5073842;28;20602;-80
2022/10/28 05:41:41;;;;;;;;;;;17.00;73.20;;;;;;5097267;28;19970;-82
2022/10/28 05:44:07;;;;;;;;;;;17.00;73.20;;;;;;5106198;28;19951;-81
2022/10/28 05:46:32;;;;;;;;;;;17.00;73.30;;;;;;5103378;28;20306;-81
2022/10/28 05:48:58;;;;;;;;;;;17.00;73.30;;;;;;5110051;27;19962;-80
2022/10/28 05:51:24;;;;;;;;;;;17.00;73.30;;;;;;5093760;28;19917;-81
2022/10/28 05:53:50;;;;;;;;;;;17.00;73.30;;;;;;5091333;28;20373;-81
2022/10/28 05:56:16;;;;;;;;;;;17.00;73.30;;;;;;5086425;28;20444;-81
2022/10/28 05:58:42;;;;;;;;;;;16.90;73.30;;;;;;5098044;28;19927;-81
2022/10/28 06:01:07;;;;;;;;;;;16.90;73.30;;;;;;5097075;28;19920;-80
2022/10/28 06:03:33;;;;;;;;;;;16.90;73.30;;;;;;5108364;28;19916;-80
2022/10/28 06:05:59;;;;;;;;;;;16.90;73.30;;;;;;5076407;28;19927;-81
2022/10/28 06:08:25;;;;;;;;;;;16.90;73.30;;;;;;5080181;28;20343;-80
2022/10/28 06:10:51;;;;;;;;;;;16.90;73.30;;;;;;5080809;28;20348;-79
2022/10/28 06:13:17;;;;;;;;;;;16.90;73.30;;;;;;5087406;28;20361;-81
2022/10/28 06:15:42;;;;;;;;;;;16.90;73.30;;;;;;5082528;28;19960;-79
2022/10/28 06:18:08;;;;;;;;;;;16.90;73.30;;;;;;5098582;28;19923;-81
2022/10/28 06:20:34;;;;;;;;;;;16.90;73.40;;;;;;5100641;28;19923;-81
2022/10/28 06:23:00;;;;;;;;;;;16.80;73.30;;;;;;5106272;28;19912;-80
2022/10/28 06:25:26;;;;;;;;;;;16.80;73.30;;;;;;5093208;28;20417;-81
2022/10/28 06:27:52;;;;;;;;;;;16.80;73.30;;;;;;5087739;28;20351;-80
2022/10/28 06:30:18;;;;;;;;;;;16.80;73.30;;;;;;5070735;28;19919;-80
2022/10/28 06:32:43;;;;;;;;;;;16.80;73.30;;;;;;5095226;28;19916;-79
2022/10/28 06:35:09;;;;;;;;;;;16.80;73.30;;;;;;5088679;28;19951;-79
2022/10/28 06:37:35;;;;;;;;;;;16.80;73.40;;;;;;5089843;28;19920;-81
2022/10/28 06:40:00;;;;;;;;;;;16.80;73.40;;;;;;5102703;28;19912;-80
2022/10/28 06:42:26;;;;;;;;;;;16.80;73.40;;;;;;5095521;28;20536;-81
2022/10/28 06:44:53;;;;;;;;;;;16.80;73.40;;;;;;5099017;28;20275;-80
2022/10/28 06:47:20;;;;;;;;;;;16.80;73.40;;;;;;5094674;28;19924;-80
2022/10/28 06:49:45;;;;;;;;;;;16.80;73.40;;;;;;5088982;28;19969;-81
2022/10/28 06:52:11;;;;;;;;;;;16.70;73.40;;;;;;5092937;28;19919;-80
2022/10/28 06:54:37;;;;;;;;;;;16.70;73.40;;;;;;5085190;28;20031;-79
2022/10/28 06:57:02;;;;;;;;;;;16.70;73.40;;;;;;5092066;28;20317;-81
2022/10/28 06:59:28;;;;;;;;;;;16.70;73.40;;;;;;5104750;28;19912;-81
2022/10/28 07:01:53;;;;;;;;;;;16.70;73.40;;;;;;5090874;28;19916;-79
2022/10/28 07:04:19;;;;;;;;;;;16.70;73.40;;;;;;5083419;28;20340;-79
2022/10/28 07:06:45;;;;;;;;;;;16.70;73.50;;;;;;5101204;28;20249;-80
2022/10/28 07:09:12;;;;;;;;;;;16.70;73.40;;;;;;5090463;28;19931;-80
2022/10/28 07:11:38;;;;;;;;;;;16.70;73.50;;;;;;5092302;28;19908;-80
2022/10/28 07:14:04;;;;;;;;;;;16.70;73.50;;;;;;5072974;28;20379;-81
2022/10/28 07:16:29;;;;;;;;;;;16.70;73.50;;;;;;5076381;28;19919;-81
2022/10/28 07:18:55;;;;;;;;;;;16.70;73.50;;;;;;5098461;28;19973;-81
2022/10/28 07:21:23;;;;;;;;;;;16.70;73.50;;;;;;5097894;28;20604;-80
2022/10/28 07:23:48;;;;;;;;;;;16.70;73.50;;;;;;5100923;28;19939;-80
2022/10/28 07:26:14;;;;;;;;;;;16.60;73.50;;;;;;5086628;28;20341;-80
2022/10/28 07:28:41;;;;;;;;;;;16.70;73.80;;;;;;5079115;28;20407;-79
2022/10/28 07:31:07;;;;;;;;;;;16.70;73.50;;;;;;5089779;28;20414;-79
2022/10/28 07:33:32;;;;;;;;;;;16.70;73.50;;;;;;5072960;28;19919;-81
2022/10/28 07:36:01;;;;;;;;;;;16.60;73.50;;;;;;5091182;28;19916;-80
2022/10/28 07:38:26;;;;;;;;;;;16.70;73.50;;;;;;5094582;28;19908;-80
2022/10/28 07:40:52;;;;;;;;;;;16.70;73.50;;;;;;5090346;28;19926;-80
2022/10/28 07:43:17;;;;;;;;;;;16.60;73.50;;;;;;5091784;28;19936;-80
2022/10/28 07:45:43;;;;;;;;;;;16.70;73.50;;;;;;5100557;28;19912;-82
2022/10/28 07:48:09;;;;;;;;;;;16.70;73.50;;;;;;5087253;28;20015;-80
2022/10/28 07:50:35;;;;;;;;;;;16.70;73.50;;;;;;5103539;28;19942;-82
2022/10/28 07:53:00;;;;;;;;;;;16.70;73.50;;;;;;5081016;28;19923;-81
2022/10/28 07:55:26;;;;;;;;;;;16.70;73.60;;;;;;5101723;28;20383;-81
2022/10/28 07:57:52;;;;;;;;;;;16.70;73.50;;;;;;5080649;28;19908;-81
2022/10/28 08:00:17;;;;;;;;;;;16.70;73.50;;;;;;5083100;28;19920;-81
2022/10/28 08:02:43;;;;;;;;;;;16.70;73.60;;;;;;5103706;28;19915;-81
2022/10/28 08:05:09;;;;;;;;;;;16.70;73.60;;;;;;5078973;28;20010;-81
2022/10/28 08:07:34;;;;;;;;;;;16.70;73.60;;;;;;5087174;28;20381;-82
2022/10/28 08:10:00;;;;;;;;;;;16.70;73.60;;;;;;5102144;28;19923;-81
2022/10/28 08:12:27;;;;;;;;;;;16.70;73.60;;;;;;5075247;28;20297;-82
2022/10/28 08:14:53;;;;;;;;;;;16.80;73.70;;;;;;5089951;28;19912;-81
2022/10/28 08:17:18;;;;;;;;;;;16.80;73.70;;;;;;5106913;28;19908;-81
2022/10/28 08:19:44;;;;;;;;;;;16.80;73.70;;;;;;5102311;28;20252;-81
2022/10/28 08:22:09;;;;;;;;;;;16.80;73.70;;;;;;5072560;28;19912;-82
2022/10/28 08:24:35;;;;;;;;;;;16.80;73.70;;;;;;5080581;28;19920;-82
2022/10/28 08:27:01;;;;;;;;;;;16.80;73.70;;;;;;5102274;28;20272;-80
2022/10/28 08:29:26;;;;;;;;;;;16.80;73.70;;;;;;5091356;28;19920;-81
2022/10/28 08:31:52;;;;;;;;;;;16.80;73.70;;;;;;5099781;28;19920;-81
2022/10/28 08:34:18;;;;;;;;;;;16.80;73.70;;;;;;5087292;28;19916;-81
2022/10/28 08:36:43;;;;;;;;;;;16.80;73.70;;;;;;5097658;28;19912;-81
2022/10/28 08:39:09;;;;;;;;;;;16.80;73.70;;;;;;5083367;28;19907;-81
2022/10/28 08:42:01;;;;;;;;;;;16.80;73.70;;;;;;5089036;28;20023;-82
2022/10/28 08:44:42;;;;;;;;;;;16.90;73.80;;;;;;5094370;28;20810;-81
2022/10/28 08:47:17;;;;;;;;;;;16.90;73.80;;;;;;5067369;28;19915;-82
2022/10/28 08:49:45;;;;;;;;;;;16.90;73.80;;;;;;5083882;28;19915;-83
2022/10/28 08:52:14;;;;;;;;;;;16.90;73.80;;;;;;5086261;28;20016;-82
2022/10/28 08:55:06;;;;;;;;;;;16.90;73.90;;;;;;5083341;28;19943;-82
2022/10/28 08:57:37;;;;;;;;;;;17.00;73.90;;;;;;5106085;27;19934;-83
2022/10/28 09:00:15;;;;;;;;;;;17.00;73.90;;;;;;5091951;28;19947;-83
2022/10/28 09:02:51;;;;;;;;;;;17.00;73.90;;;;;;5092381;28;19939;-80
2022/10/28 09:05:20;;;;;;;;;;;17.00;73.90;;;;;;5096396;28;19948;-81
2022/10/28 09:07:46;;;;;;;;;;;17.10;74.00;;;;;;5106669;28;19920;-82
2022/10/28 09:10:15;;;;;;;;;;;17.10;74.00;;;;;;5080737;28;19924;-81
2022/10/28 09:12:50;;;;;;;;;;;17.10;74.00;;;;;;5091793;28;19915;-84
2022/10/28 09:15:18;;;;;;;;;;;17.10;74.00;;;;;;5093675;28;19916;-84
2022/10/28 09:17:55;;;;;;;;;;;17.20;74.00;;;;;;5102519;28;19915;-84
2022/10/28 09:20:21;;;;;;;;;;;17.20;74.00;;;;;;5077891;28;20420;-84
2022/10/28 09:22:54;;;;;;;;;;;17.20;74.00;;;;;;5086571;28;19907;-85
2022/10/28 09:25:28;;;;;;;;;;;17.30;74.10;;;;;;5101981;28;19982;-84
2022/10/28 09:28:13;;;;;;;;;;;17.30;74.10;;;;;;5077727;28;20487;-82
2022/10/28 09:30:43;;;;;;;;;;;17.30;74.10;;;;;;5093080;28;19974;-81
2022/10/28 09:33:14;;;;;;;;;;;17.40;74.10;;;;;;5092147;28;20138;-82
2022/10/28 09:35:42;;;;;;;;;;;17.40;74.10;;;;;;5099604;28;19956;-84
2022/10/28 09:38:17;;;;;;;;;;;17.50;74.20;;;;;;5099008;28;19947;-83
2022/10/28 09:40:47;;;;;;;;;;;17.50;74.20;;;;;;5107624;28;19935;-84
2022/10/28 09:43:24;;;;;;;;;;;17.60;74.30;;;;;;5078528;28;19912;-83
2022/10/28 09:45:51;;;;;;;;;;;17.60;74.30;;;;;;5099415;28;19918;-82
2022/10/28 09:48:28;;;;;;;;;;;17.60;74.30;;;;;;5091301;28;19916;-82
2022/10/28 09:50:55;;;;;;;;;;;17.70;74.30;;;;;;5089225;28;19943;-83
2022/10/28 09:53:30;;;;;;;;;;;17.70;74.30;;;;;;5102238;28;19908;-85
2022/10/28 09:55:55;;;;;;;;;;;17.80;74.40;;;;;;5093565;28;19961;-81
2022/10/28 09:58:21;;;;;;;;;;;17.80;74.40;;;;;;5069071;28;19953;-81
2022/10/28 10:00:47;;;;;;;;;;;17.90;74.50;;;;;;5093439;28;19919;-83
2022/10/28 10:03:14;;;;;;;;;;;17.90;74.50;;;;;;5079438;28;19908;-82
2022/10/28 10:05:42;;;;;;;;;;;18.00;74.60;;;;;;5108004;28;19928;-83
2022/10/28 10:08:11;;;;;;;;;;;18.00;74.60;;;;;;5113335;27;19958;-83
2022/10/28 10:10:43;;;;;;;;;;;18.10;74.70;;;;;;5087767;28;19912;-83
2022/10/28 10:13:11;;;;;;;;;;;18.10;74.70;;;;;;5100983;28;19913;-83
2022/10/28 10:15:37;;;;;;;;;;;18.20;74.80;;;;;;5100897;28;19913;-82
2022/10/28 10:18:04;;;;;;;;;;;18.30;74.90;;;;;;5088922;28;19913;-82
2022/10/28 10:20:47;;;;;;;;;;;18.30;74.90;;;;;;5081065;28;19954;-83
2022/10/28 10:23:25;;;;;;;;;;;18.30;74.90;;;;;;5089267;28;20006;-84
2022/10/28 10:25:56;;;;;;;;;;;18.40;74.90;;;;;;5095998;28;19912;-84
2022/10/28 10:28:22;;;;;;;;;;;18.40;74.90;;;;;;5093781;28;19952;-84
2022/10/28 10:30:49;;;;;;;;;;;18.40;75.00;;;;;;5098875;28;19978;-82
2022/10/28 10:33:20;;;;;;;;;;;18.50;75.00;;;;;;5074346;28;19946;-84
2022/10/28 10:35:51;;;;;;;;;;;18.60;75.10;;;;;;5090679;28;19920;-85
2022/10/28 10:38:17;;;;;;;;;;;18.60;75.10;;;;;;5090951;28;20408;-83
2022/10/28 10:40:48;;;;;;;;;;;18.60;75.10;;;;;;5079906;28;19908;-84
2022/10/28 10:43:16;;;;;;;;;;;18.70;75.20;;;;;;5108857;28;19957;-82
2022/10/28 10:45:50;;;;;;;;;;;18.70;75.20;;;;;;5099175;28;19932;-84
2022/10/28 10:48:17;;;;;;;;;;;18.80;75.20;;;;;;5102939;27;19923;-85
2022/10/28 10:50:47;;;;;;;;;;;18.80;75.20;;;;;;5101008;28;20006;-84
2022/10/28 10:53:17;;;;;;;;;;;18.90;75.30;;;;;;5084196;28;19919;-84
2022/10/28 10:55:47;;;;;;;;;;;18.90;75.30;;;;;;5083559;28;19920;-84
2022/10/28 10:58:15;;;;;;;;;;;19.00;75.40;;;;;;5082381;28;19913;-84
2022/10/28 11:00:46;;;;;;;;;;;19.00;75.30;;;;;;5081463;28;19914;-83
2022/10/28 11:03:19;;;;;;;;;;;19.00;75.30;;;;;;5096116;28;19919;-83
2022/10/28 11:05:49;;;;;;;;;;;19.10;75.40;;;;;;5071205;28;19911;-83
2022/10/28 11:08:24;;;;;;;;;;;19.10;75.40;;;;;;5098694;28;20034;-84
2022/10/28 11:11:02;;;;;;;;;;;19.20;75.50;;;;;;5087384;28;19919;-83
2022/10/28 11:13:28;;;;;;;;;;;19.20;75.50;;;;;;5090641;28;19913;-84
2022/10/28 11:16:04;;;;;;;;;;;19.30;75.50;;;;;;5108037;28;19912;-83
2022/10/28 11:18:38;;;;;;;;;;;19.30;75.50;;;;;;5102591;28;19919;-83
2022/10/28 11:21:04;;;;;;;;;;;19.30;75.50;;;;;;5085401;28;20264;-84
2022/10/28 11:23:44;;;;;;;;;;;19.40;75.60;;;;;;5098513;28;19908;-83
2022/10/28 11:26:12;;;;;;;;;;;19.40;75.60;;;;;;5091800;28;19958;-83
2022/10/28 11:28:50;;;;;;;;;;;19.50;75.60;;;;;;5101681;28;20603;-83
2022/10/28 11:31:44;;;;;;;;;;;19.50;75.60;;;;;;5099048;28;19923;-84
2022/10/28 11:34:30;;;;;;;;;;;19.50;75.60;;;;;;5088187;28;20303;-84
2022/10/28 11:36:56;;;;;;;;;;;19.60;75.60;;;;;;5111831;27;19912;-83
2022/10/28 11:39:32;;;;;;;;;;;19.60;75.70;;;;;;5108694;27;19915;-83
2022/10/28 11:42:13;;;;;;;;;;;19.60;75.60;;;;;;5086852;28;19962;-83
2022/10/28 11:44:44;;;;;;;;;;;19.70;75.70;;;;;;5095863;28;19966;-84
2022/10/28 11:47:45;;;;;;;;;;;19.70;75.70;;;;;;5088881;28;20365;-84
2022/10/28 11:50:21;;;;;;;;;;;19.80;75.80;;;;;;4993696;28;19941;-84
2022/10/28 11:52:47;;;;;;;;;;;19.80;75.70;;;;;;5073752;28;19916;-83
2022/10/28 11:55:12;;;;;;;;;;;19.80;75.80;;;;;;5077193;28;19912;-84
2022/10/28 11:57:57;;;;;;;;;;;19.90;75.80;;;;;;5104295;28;19908;-84
2022/10/28 12:00:26;;;;;;;;;;;19.90;75.80;;;;;;5075665;28;19920;-84
2022/10/28 12:03:10;;;;;;;;;;;20.00;75.80;;;;;;5088681;28;19920;-83
2022/10/28 12:05:39;;;;;;;;;;;20.00;75.80;;;;;;5094813;28;19916;-84
2022/10/28 12:08:17;;;;;;;;;;;20.00;75.80;;;;;;5092961;28;19917;-84
2022/10/28 12:10:45;;;;;;;;;;;20.10;75.90;;;;;;5091731;28;19914;-85
2022/10/28 12:13:19;;;;;;;;;;;20.10;75.90;;;;;;5101693;28;20290;-86
2022/10/28 12:16:14;;;;;;;;;;;20.20;75.90;;;;;;5100741;28;19919;-84
2022/10/28 12:18:40;;;;;;;;;;;20.20;75.90;;;;;;5076253;28;19957;-84
2022/10/28 12:21:05;;;;;;;;;;;20.30;75.90;;;;;;5097183;28;20002;-83
2022/10/28 12:23:33;;;;;;;;;;;20.30;75.90;;;;;;5094142;28;19919;-84
2022/10/28 12:26:00;;;;;;;;;;;20.30;75.90;;;;;;5105492;28;19965;-84
2022/10/28 12:28:32;;;;;;;;;;;20.40;75.90;;;;;;5110260;28;19924;-83
2022/10/28 12:30:57;;;;;;;;;;;20.40;75.90;;;;;;5092531;28;19927;-83
2022/10/28 12:33:32;;;;;;;;;;;20.50;75.90;;;;;;5087503;28;19991;-84
2022/10/28 12:36:03;;;;;;;;;;;20.50;75.90;;;;;;5109567;28;20391;-84
2022/10/28 12:38:35;;;;;;;;;;;20.60;75.90;;;;;;5110696;27;20438;-84
2022/10/28 12:41:10;;;;;;;;;;;20.60;76.50;;;;;;5097852;28;19938;-83
2022/10/28 12:43:37;;;;;;;;;;;20.60;75.90;;;;;;5085168;28;19919;-83
2022/10/28 12:46:04;;;;;;;;;;;20.70;75.90;;;;;;5097403;28;20296;-83
2022/10/28 12:48:41;;;;;;;;;;;20.70;75.80;;;;;;5095688;28;19934;-83
2022/10/28 12:51:07;;;;;;;;;;;20.80;75.90;;;;;;5102716;28;20459;-83
2022/10/28 12:53:35;;;;;;;;;;;20.80;75.90;;;;;;5086145;28;19998;-83
2022/10/28 12:56:02;;;;;;;;;;;20.90;75.90;;;;;;5099441;28;19999;-83
2022/10/28 12:58:31;;;;;;;;;;;20.90;75.80;;;;;;5109409;28;19938;-83
2022/10/28 13:01:02;;;;;;;;;;;21.00;75.90;;;;;;5100949;28;19980;-84
2022/10/28 13:03:28;;;;;;;;;;;21.00;75.90;;;;;;5095503;28;20042;-83
2022/10/28 13:05:54;;;;;;;;;;;21.00;75.80;;;;;;5097645;28;20365;-83
2022/10/28 13:08:44;;;;;;;;;;;21.00;75.80;;;;;;5100784;27;19920;-83
2022/10/28 13:11:19;;;;;;;;;;;21.10;75.80;;;;;;5114185;27;19912;-84
2022/10/28 13:13:51;;;;;;;;;;;21.10;75.70;;;;;;5092042;28;20350;-84
2022/10/28 13:16:25;;;;;;;;;;;21.20;75.80;;;;;;5102595;28;19916;-84
2022/10/28 13:18:51;;;;;;;;;;;21.20;75.70;;;;;;5112062;27;19912;-84
2022/10/28 13:21:41;;;;;;;;;;;21.20;75.70;;;;;;5086452;28;19919;-84
2022/10/28 13:24:30;;;;;;;;;;;21.30;75.70;;;;;;5107255;28;19919;-83
2022/10/28 13:26:56;;;;;;;;;;;21.30;75.60;;;;;;5099789;28;19916;-83
2022/10/28 13:29:25;;;;;;;;;;;21.30;75.50;;;;;;5110301;28;19927;-83
2022/10/28 13:31:52;;;;;;;;;;;21.40;75.60;;;;;;5098207;28;19939;-83
2022/10/28 13:34:19;;;;;;;;;;;21.40;75.50;;;;;;5091414;28;19916;-84
2022/10/28 13:36:46;;;;;;;;;;;21.40;75.40;;;;;;5105572;28;19912;-83
2022/10/28 13:39:22;;;;;;;;;;;21.50;75.40;;;;;;5104000;28;20360;-83
2022/10/28 13:41:47;;;;;;;;;;;21.50;75.40;;;;;;5091365;28;19923;-83
2022/10/28 13:44:13;;;;;;;;;;;21.50;75.30;;;;;;5086919;28;19908;-83
2022/10/28 13:46:57;;;;;;;;;;;21.50;75.30;;;;;;5095960;28;19919;-84
2022/10/28 13:49:24;;;;;;;;;;;21.60;75.30;;;;;;5100357;28;19927;-84
2022/10/28 13:51:51;;;;;;;;;;;21.60;75.30;;;;;;5083868;28;19927;-84
2022/10/28 13:54:24;;;;;;;;;;;21.60;75.20;;;;;;5077098;28;20371;-83
2022/10/28 13:56:50;;;;;;;;;;;21.60;75.20;;;;;;5107385;28;19908;-84
2022/10/28 13:59:19;;;;;;;;;;;21.70;75.20;;;;;;5086287;28;19951;-84
2022/10/28 14:01:53;;;;;;;;;;;21.70;75.10;;;;;;5106967;27;19923;-83
2022/10/28 14:04:20;;;;;;;;;;;21.70;75.70;;;;;;5096490;28;19912;-85
2022/10/28 14:06:46;;;;;;;;;;;21.70;75.00;;;;;;5085944;28;19918;-83
2022/10/28 14:09:22;;;;;;;;;;;21.70;75.00;;;;;;5093415;28;19920;-84
2022/10/28 14:12:10;;;;;;;;;;;21.80;75.00;;;;;;5084346;28;20458;-84
2022/10/28 14:14:36;;;;;;;;;;;21.80;74.90;;;;;;5080959;28;20368;-84
2022/10/28 14:17:04;;;;;;;;;;;21.80;74.90;;;;;;5070227;28;19945;-84
2022/10/28 14:19:30;;;;;;;;;;;21.80;74.90;;;;;;5111308;27;20364;-84
2022/10/28 14:22:00;;;;;;;;;;;21.90;74.90;;;;;;5083101;28;19918;-85
2022/10/28 14:24:30;;;;;;;;;;;21.90;74.90;;;;;;5104427;28;20044;-83
2022/10/28 14:27:17;;;;;;;;;;;21.90;74.80;;;;;;5081774;28;20269;-83